sensor_id;sensor_type;location;lat;lon;timestamp;temperature;humidity
21271;DHT22;10795;50.796;3.860;2023-06-26T00:01:27;21.40;99.90
21271;DHT22;10795;50.796;3.860;2023-06-26T00:04:00;21.40;99.90
21271;DHT22;10795;50.796;3.860;2023-06-26T00:06:26;21.40;99.90
21271;DHT22;10795;50.796;3.860;2023-06-26T00:08:55;21.20;99.90
21271;DHT22;10795;50.796;3.860;2023-06-26T00:11:22;21.20;99.90
21271;DHT22;10795;50.796;3.860;2023-06-26T00:13:48;21.40;99.90
21271;DHT22;10795;50.796;3.860;2023-06-26T00:16:14;21.40;99.90
21271;DHT22;10795;50.796;3.860;2023-06-26T00:18:39;21.30;99.90
21271;DHT22;10795;50.796;3.860;2023-06-26T00:21:05;21.00;99.90
21271;DHT22;10795;50.796;3.860;2023-06-26T00:23:31;20.90;99.90
21271;DHT22;10795;50.796;3.860;2023-06-26T00:25:58;21.40;99.90
21271;DHT22;10795;50.796;3.860;2023-06-26T00:28:24;21.10;99.90
21271;DHT22;10795;50.796;3.860;2023-06-26T00:30:50;21.10;99.90
21271;DHT22;10795;50.796;3.860;2023-06-26T00:33:16;20.90;99.90
21271;DHT22;10795;50.796;3.860;2023-06-26T00:35:41;20.80;99.90
21271;DHT22;10795;50.796;3.860;2023-06-26T00:38:07;20.70;99.90
21271;DHT22;10795;50.796;3.860;2023-06-26T00:40:33;20.80;99.90
21271;DHT22;10795;50.796;3.860;2023-06-26T00:42:59;20.60;99.90
21271;DHT22;10795;50.796;3.860;2023-06-26T00:45:25;20.80;99.90
21271;DHT22;10795;50.796;3.860;2023-06-26T00:47:51;20.50;99.90
21271;DHT22;10795;50.796;3.860;2023-06-26T00:50:17;20.50;99.90
21271;DHT22;10795;50.796;3.860;2023-06-26T00:52:45;20.50;99.90
21271;DHT22;10795;50.796;3.860;2023-06-26T00:55:11;20.40;99.90
21271;DHT22;10795;50.796;3.860;2023-06-26T00:57:36;20.50;99.90
21271;DHT22;10795;50.796;3.860;2023-06-26T01:00:03;20.30;99.90
21271;DHT22;10795;50.796;3.860;2023-06-26T01:02:30;20.10;99.90
21271;DHT22;10795;50.796;3.860;2023-06-26T01:05:01;20.00;99.90
21271;DHT22;10795;50.796;3.860;2023-06-26T01:07:28;20.10;99.90
21271;DHT22;10795;50.796;3.860;2023-06-26T01:09:54;20.10;99.90
21271;DHT22;10795;50.796;3.860;2023-06-26T01:12:20;20.30;99.90
21271;DHT22;10795;50.796;3.860;2023-06-26T01:14:48;20.10;99.90
21271;DHT22;10795;50.796;3.860;2023-06-26T01:17:14;20.00;99.90
21271;DHT22;10795;50.796;3.860;2023-06-26T01:19:41;19.90;99.90
21271;DHT22;10795;50.796;3.860;2023-06-26T01:25:11;20.00;99.90
21271;DHT22;10795;50.796;3.860;2023-06-26T01:27:39;19.90;99.90
21271;DHT22;10795;50.796;3.860;2023-06-26T01:30:06;20.00;99.90
21271;DHT22;10795;50.796;3.860;2023-06-26T01:32:35;20.00;99.90
21271;DHT22;10795;50.796;3.860;2023-06-26T01:35:02;19.90;99.90
21271;DHT22;10795;50.796;3.860;2023-06-26T01:37:29;19.90;99.90
21271;DHT22;10795;50.796;3.860;2023-06-26T01:39:55;20.00;99.90
21271;DHT22;10795;50.796;3.860;2023-06-26T01:42:21;19.90;99.90
21271;DHT22;10795;50.796;3.860;2023-06-26T01:44:47;19.90;99.90
21271;DHT22;10795;50.796;3.860;2023-06-26T01:47:16;19.90;99.90
21271;DHT22;10795;50.796;3.860;2023-06-26T01:55:02;19.70;99.90
21271;DHT22;10795;50.796;3.860;2023-06-26T01:57:30;19.60;99.90
21271;DHT22;10795;50.796;3.860;2023-06-26T01:59:57;19.60;99.90
21271;DHT22;10795;50.796;3.860;2023-06-26T02:02:27;19.60;99.90
21271;DHT22;10795;50.796;3.860;2023-06-26T02:04:53;19.80;99.90
21271;DHT22;10795;50.796;3.860;2023-06-26T02:07:19;19.70;99.90
21271;DHT22;10795;50.796;3.860;2023-06-26T02:09:47;19.80;99.90
21271;DHT22;10795;50.796;3.860;2023-06-26T02:12:13;19.70;99.90
21271;DHT22;10795;50.796;3.860;2023-06-26T02:14:40;19.50;99.90
21271;DHT22;10795;50.796;3.860;2023-06-26T02:17:05;19.60;99.90
21271;DHT22;10795;50.796;3.860;2023-06-26T02:19:32;19.80;99.90
21271;DHT22;10795;50.796;3.860;2023-06-26T02:21:58;19.60;99.90
21271;DHT22;10795;50.796;3.860;2023-06-26T02:24:23;19.40;99.90
21271;DHT22;10795;50.796;3.860;2023-06-26T02:26:49;19.30;99.90
21271;DHT22;10795;50.796;3.860;2023-06-26T02:29:15;19.50;99.90
21271;DHT22;10795;50.796;3.860;2023-06-26T02:31:41;19.50;99.90
21271;DHT22;10795;50.796;3.860;2023-06-26T02:34:07;19.50;99.90
21271;DHT22;10795;50.796;3.860;2023-06-26T02:36:33;19.20;99.90
21271;DHT22;10795;50.796;3.860;2023-06-26T02:38:59;19.60;99.90
21271;DHT22;10795;50.796;3.860;2023-06-26T02:41:25;19.70;99.90
21271;DHT22;10795;50.796;3.860;2023-06-26T02:43:51;19.30;99.90
21271;DHT22;10795;50.796;3.860;2023-06-26T02:46:17;19.60;99.90
21271;DHT22;10795;50.796;3.860;2023-06-26T02:48:43;19.40;99.90
21271;DHT22;10795;50.796;3.860;2023-06-26T02:51:09;19.30;99.90
21271;DHT22;10795;50.796;3.860;2023-06-26T02:53:35;19.20;99.90
21271;DHT22;10795;50.796;3.860;2023-06-26T02:56:01;19.20;99.90
21271;DHT22;10795;50.796;3.860;2023-06-26T02:58:28;19.20;99.90
21271;DHT22;10795;50.796;3.860;2023-06-26T03:00:54;19.00;99.90
21271;DHT22;10795;50.796;3.860;2023-06-26T03:03:20;18.90;99.90
21271;DHT22;10795;50.796;3.860;2023-06-26T03:05:46;18.80;99.90
21271;DHT22;10795;50.796;3.860;2023-06-26T03:08:12;18.50;99.90
21271;DHT22;10795;50.796;3.860;2023-06-26T03:10:38;18.40;99.90
21271;DHT22;10795;50.796;3.860;2023-06-26T03:13:04;18.40;99.90
21271;DHT22;10795;50.796;3.860;2023-06-26T03:15:31;18.20;99.90
21271;DHT22;10795;50.796;3.860;2023-06-26T03:17:57;18.20;99.90
21271;DHT22;10795;50.796;3.860;2023-06-26T03:20:26;18.30;99.90
21271;DHT22;10795;50.796;3.860;2023-06-26T03:22:56;18.50;99.90
21271;DHT22;10795;50.796;3.860;2023-06-26T03:25:23;18.60;99.90
21271;DHT22;10795;50.796;3.860;2023-06-26T03:27:54;18.80;99.90
21271;DHT22;10795;50.796;3.860;2023-06-26T03:30:21;18.60;99.90
21271;DHT22;10795;50.796;3.860;2023-06-26T03:32:50;18.70;99.90
21271;DHT22;10795;50.796;3.860;2023-06-26T03:35:16;18.50;99.90
21271;DHT22;10795;50.796;3.860;2023-06-26T03:37:42;18.20;99.90
21271;DHT22;10795;50.796;3.860;2023-06-26T03:40:09;18.10;99.90
21271;DHT22;10795;50.796;3.860;2023-06-26T03:42:35;18.10;99.90
21271;DHT22;10795;50.796;3.860;2023-06-26T03:45:00;17.90;99.90
21271;DHT22;10795;50.796;3.860;2023-06-26T03:47:28;18.40;99.90
21271;DHT22;10795;50.796;3.860;2023-06-26T03:49:55;18.40;99.90
21271;DHT22;10795;50.796;3.860;2023-06-26T03:52:21;18.10;99.90
21271;DHT22;10795;50.796;3.860;2023-06-26T03:54:47;17.80;99.90
21271;DHT22;10795;50.796;3.860;2023-06-26T03:57:15;17.90;99.90
21271;DHT22;10795;50.796;3.860;2023-06-26T03:59:41;18.20;99.90
21271;DHT22;10795;50.796;3.860;2023-06-26T04:02:07;18.30;99.90
21271;DHT22;10795;50.796;3.860;2023-06-26T04:04:33;18.20;99.90
21271;DHT22;10795;50.796;3.860;2023-06-26T04:06:58;18.00;99.90
21271;DHT22;10795;50.796;3.860;2023-06-26T04:09:25;18.20;99.90
21271;DHT22;10795;50.796;3.860;2023-06-26T04:11:51;18.70;99.90
21271;DHT22;10795;50.796;3.860;2023-06-26T04:14:17;18.50;99.90
21271;DHT22;10795;50.796;3.860;2023-06-26T04:16:43;18.30;99.90
21271;DHT22;10795;50.796;3.860;2023-06-26T04:19:09;18.40;99.90
21271;DHT22;10795;50.796;3.860;2023-06-26T04:21:36;18.20;99.90
21271;DHT22;10795;50.796;3.860;2023-06-26T04:24:01;17.80;99.90
21271;DHT22;10795;50.796;3.860;2023-06-26T04:26:27;17.60;99.90
21271;DHT22;10795;50.796;3.860;2023-06-26T04:28:54;17.60;99.90
21271;DHT22;10795;50.796;3.860;2023-06-26T04:31:20;17.80;99.90
21271;DHT22;10795;50.796;3.860;2023-06-26T04:33:48;17.70;99.90
21271;DHT22;10795;50.796;3.860;2023-06-26T04:36:21;17.80;99.90
21271;DHT22;10795;50.796;3.860;2023-06-26T04:38:47;18.00;99.90
21271;DHT22;10795;50.796;3.860;2023-06-26T04:41:15;18.00;99.90
21271;DHT22;10795;50.796;3.860;2023-06-26T04:43:41;18.00;99.90
21271;DHT22;10795;50.796;3.860;2023-06-26T04:46:07;18.20;99.90
21271;DHT22;10795;50.796;3.860;2023-06-26T04:48:33;18.20;99.90
21271;DHT22;10795;50.796;3.860;2023-06-26T04:51:00;18.50;99.90
21271;DHT22;10795;50.796;3.860;2023-06-26T04:53:31;18.70;99.90
21271;DHT22;10795;50.796;3.860;2023-06-26T04:55:57;18.70;99.90
21271;DHT22;10795;50.796;3.860;2023-06-26T04:58:23;18.80;99.90
21271;DHT22;10795;50.796;3.860;2023-06-26T05:00:49;18.80;99.90
21271;DHT22;10795;50.796;3.860;2023-06-26T05:03:16;18.70;99.90
21271;DHT22;10795;50.796;3.860;2023-06-26T05:05:42;19.00;99.90
21271;DHT22;10795;50.796;3.860;2023-06-26T05:08:20;19.40;99.90
21271;DHT22;10795;50.796;3.860;2023-06-26T05:10:46;19.10;99.90
21271;DHT22;10795;50.796;3.860;2023-06-26T05:13:12;19.10;99.90
21271;DHT22;10795;50.796;3.860;2023-06-26T05:15:41;19.10;99.90
21271;DHT22;10795;50.796;3.860;2023-06-26T05:18:07;19.50;99.90
21271;DHT22;10795;50.796;3.860;2023-06-26T05:20:34;19.40;99.90
21271;DHT22;10795;50.796;3.860;2023-06-26T05:23:02;19.40;99.90
21271;DHT22;10795;50.796;3.860;2023-06-26T05:25:29;19.90;99.90
21271;DHT22;10795;50.796;3.860;2023-06-26T05:27:57;19.80;99.90
21271;DHT22;10795;50.796;3.860;2023-06-26T05:30:24;19.80;99.90
21271;DHT22;10795;50.796;3.860;2023-06-26T05:32:56;20.30;99.90
21271;DHT22;10795;50.796;3.860;2023-06-26T05:35:27;20.40;99.90
21271;DHT22;10795;50.796;3.860;2023-06-26T05:37:54;20.50;99.90
21271;DHT22;10795;50.796;3.860;2023-06-26T05:40:21;20.10;99.90
21271;DHT22;10795;50.796;3.860;2023-06-26T05:42:47;20.50;99.90
21271;DHT22;10795;50.796;3.860;2023-06-26T05:45:12;20.40;99.90
21271;DHT22;10795;50.796;3.860;2023-06-26T05:47:38;20.80;99.90
21271;DHT22;10795;50.796;3.860;2023-06-26T05:50:05;20.50;99.90
21271;DHT22;10795;50.796;3.860;2023-06-26T05:52:31;20.90;99.90
21271;DHT22;10795;50.796;3.860;2023-06-26T05:54:57;21.00;99.90
21271;DHT22;10795;50.796;3.860;2023-06-26T05:57:27;21.20;99.90
21271;DHT22;10795;50.796;3.860;2023-06-26T05:59:54;21.80;99.90
21271;DHT22;10795;50.796;3.860;2023-06-26T06:02:20;21.70;99.90
21271;DHT22;10795;50.796;3.860;2023-06-26T06:04:46;21.50;99.90
21271;DHT22;10795;50.796;3.860;2023-06-26T06:07:12;21.60;99.90
21271;DHT22;10795;50.796;3.860;2023-06-26T06:09:38;22.10;99.90
21271;DHT22;10795;50.796;3.860;2023-06-26T06:12:05;22.20;99.90
21271;DHT22;10795;50.796;3.860;2023-06-26T06:14:34;22.40;99.90
21271;DHT22;10795;50.796;3.860;2023-06-26T06:17:00;22.00;99.90
21271;DHT22;10795;50.796;3.860;2023-06-26T06:19:26;21.80;99.90
21271;DHT22;10795;50.796;3.860;2023-06-26T06:21:52;22.30;99.90
21271;DHT22;10795;50.796;3.860;2023-06-26T06:24:19;22.70;99.90
21271;DHT22;10795;50.796;3.860;2023-06-26T06:26:44;22.70;99.90
21271;DHT22;10795;50.796;3.860;2023-06-26T06:29:10;22.90;99.90
21271;DHT22;10795;50.796;3.860;2023-06-26T06:31:36;22.30;99.90
21271;DHT22;10795;50.796;3.860;2023-06-26T06:34:02;22.80;99.90
21271;DHT22;10795;50.796;3.860;2023-06-26T06:36:28;23.30;99.90
21271;DHT22;10795;50.796;3.860;2023-06-26T06:38:53;23.10;99.90
21271;DHT22;10795;50.796;3.860;2023-06-26T06:41:20;23.30;99.90
21271;DHT22;10795;50.796;3.860;2023-06-26T06:43:46;23.40;99.90
21271;DHT22;10795;50.796;3.860;2023-06-26T06:46:12;23.30;99.90
21271;DHT22;10795;50.796;3.860;2023-06-26T06:48:38;23.40;99.90
21271;DHT22;10795;50.796;3.860;2023-06-26T06:51:03;23.60;99.90
21271;DHT22;10795;50.796;3.860;2023-06-26T06:53:30;24.00;99.90
21271;DHT22;10795;50.796;3.860;2023-06-26T06:55:56;23.30;99.90
21271;DHT22;10795;50.796;3.860;2023-06-26T06:58:22;23.90;99.90
21271;DHT22;10795;50.796;3.860;2023-06-26T07:00:48;23.40;99.90
21271;DHT22;10795;50.796;3.860;2023-06-26T07:03:14;23.70;99.90
21271;DHT22;10795;50.796;3.860;2023-06-26T07:05:43;24.10;99.90
21271;DHT22;10795;50.796;3.860;2023-06-26T07:08:11;24.10;99.90
21271;DHT22;10795;50.796;3.860;2023-06-26T07:10:37;24.60;99.90
21271;DHT22;10795;50.796;3.860;2023-06-26T07:13:03;24.50;99.90
21271;DHT22;10795;50.796;3.860;2023-06-26T07:15:29;24.10;99.90
21271;DHT22;10795;50.796;3.860;2023-06-26T07:17:54;24.90;99.90
21271;DHT22;10795;50.796;3.860;2023-06-26T07:20:20;25.00;99.90
21271;DHT22;10795;50.796;3.860;2023-06-26T07:22:46;24.90;99.90
21271;DHT22;10795;50.796;3.860;2023-06-26T07:25:12;24.90;99.90
21271;DHT22;10795;50.796;3.860;2023-06-26T07:27:39;25.20;99.90
21271;DHT22;10795;50.796;3.860;2023-06-26T07:30:06;25.20;99.90
21271;DHT22;10795;50.796;3.860;2023-06-26T07:32:34;25.60;99.90
21271;DHT22;10795;50.796;3.860;2023-06-26T07:35:00;25.20;99.90
21271;DHT22;10795;50.796;3.860;2023-06-26T07:37:26;25.50;99.90
21271;DHT22;10795;50.796;3.860;2023-06-26T07:39:52;25.30;99.90
21271;DHT22;10795;50.796;3.860;2023-06-26T07:42:17;25.20;99.90
21271;DHT22;10795;50.796;3.860;2023-06-26T07:44:43;25.60;99.90
21271;DHT22;10795;50.796;3.860;2023-06-26T07:47:09;25.70;99.90
21271;DHT22;10795;50.796;3.860;2023-06-26T07:49:35;26.00;99.90
21271;DHT22;10795;50.796;3.860;2023-06-26T07:52:01;26.80;99.90
21271;DHT22;10795;50.796;3.860;2023-06-26T07:54:30;27.40;99.90
21271;DHT22;10795;50.796;3.860;2023-06-26T07:56:58;27.90;99.90
21271;DHT22;10795;50.796;3.860;2023-06-26T07:59:25;27.60;99.90
21271;DHT22;10795;50.796;3.860;2023-06-26T08:01:52;27.10;99.90
21271;DHT22;10795;50.796;3.860;2023-06-26T08:04:20;27.00;99.90
21271;DHT22;10795;50.796;3.860;2023-06-26T08:06:48;26.70;99.90
21271;DHT22;10795;50.796;3.860;2023-06-26T08:09:14;26.60;99.90
21271;DHT22;10795;50.796;3.860;2023-06-26T08:11:40;26.00;99.90
21271;DHT22;10795;50.796;3.860;2023-06-26T08:14:05;25.90;99.90
21271;DHT22;10795;50.796;3.860;2023-06-26T08:16:31;26.40;99.90
21271;DHT22;10795;50.796;3.860;2023-06-26T08:18:57;26.40;99.90
21271;DHT22;10795;50.796;3.860;2023-06-26T08:21:23;27.40;99.90
21271;DHT22;10795;50.796;3.860;2023-06-26T08:23:49;26.90;99.90
21271;DHT22;10795;50.796;3.860;2023-06-26T08:26:14;25.80;99.90
21271;DHT22;10795;50.796;3.860;2023-06-26T08:28:40;25.20;99.90
21271;DHT22;10795;50.796;3.860;2023-06-26T08:31:06;26.20;99.90
21271;DHT22;10795;50.796;3.860;2023-06-26T08:33:32;26.20;99.90
21271;DHT22;10795;50.796;3.860;2023-06-26T08:35:57;26.30;99.90
21271;DHT22;10795;50.796;3.860;2023-06-26T08:38:23;26.30;99.90
21271;DHT22;10795;50.796;3.860;2023-06-26T08:40:49;26.90;99.90
21271;DHT22;10795;50.796;3.860;2023-06-26T08:43:15;27.50;99.90
21271;DHT22;10795;50.796;3.860;2023-06-26T08:45:41;27.10;99.90
21271;DHT22;10795;50.796;3.860;2023-06-26T08:48:10;27.30;99.90
21271;DHT22;10795;50.796;3.860;2023-06-26T08:50:38;27.80;99.90
21271;DHT22;10795;50.796;3.860;2023-06-26T08:53:10;28.50;99.90
21271;DHT22;10795;50.796;3.860;2023-06-26T08:55:41;28.30;99.90
21271;DHT22;10795;50.796;3.860;2023-06-26T08:58:08;28.30;99.90
21271;DHT22;10795;50.796;3.860;2023-06-26T09:00:35;28.60;99.90
21271;DHT22;10795;50.796;3.860;2023-06-26T09:03:02;28.30;99.90
21271;DHT22;10795;50.796;3.860;2023-06-26T09:05:28;28.40;99.90
21271;DHT22;10795;50.796;3.860;2023-06-26T09:07:55;26.90;99.90
21271;DHT22;10795;50.796;3.860;2023-06-26T09:10:21;27.10;99.90
21271;DHT22;10795;50.796;3.860;2023-06-26T09:12:48;28.20;99.90
21271;DHT22;10795;50.796;3.860;2023-06-26T09:15:20;28.00;99.90
21271;DHT22;10795;50.796;3.860;2023-06-26T09:17:47;28.40;99.90
21271;DHT22;10795;50.796;3.860;2023-06-26T09:20:13;29.70;99.90
21271;DHT22;10795;50.796;3.860;2023-06-26T09:22:42;29.60;99.90
21271;DHT22;10795;50.796;3.860;2023-06-26T09:25:08;28.70;99.90
21271;DHT22;10795;50.796;3.860;2023-06-26T09:27:35;29.50;99.90
21271;DHT22;10795;50.796;3.860;2023-06-26T09:30:05;29.50;99.90
21271;DHT22;10795;50.796;3.860;2023-06-26T09:32:37;28.60;99.90
21271;DHT22;10795;50.796;3.860;2023-06-26T09:35:03;28.10;99.90
21271;DHT22;10795;50.796;3.860;2023-06-26T09:37:29;28.40;99.90
21271;DHT22;10795;50.796;3.860;2023-06-26T09:39:55;27.90;99.90
21271;DHT22;10795;50.796;3.860;2023-06-26T09:42:21;29.00;99.90
21271;DHT22;10795;50.796;3.860;2023-06-26T09:44:48;28.70;99.90
21271;DHT22;10795;50.796;3.860;2023-06-26T09:47:18;29.70;99.90
21271;DHT22;10795;50.796;3.860;2023-06-26T09:49:45;28.90;99.90
21271;DHT22;10795;50.796;3.860;2023-06-26T09:52:16;30.80;99.90
21271;DHT22;10795;50.796;3.860;2023-06-26T09:54:42;29.50;99.90
21271;DHT22;10795;50.796;3.860;2023-06-26T09:57:14;28.70;99.90
21271;DHT22;10795;50.796;3.860;2023-06-26T09:59:41;28.60;99.90
21271;DHT22;10795;50.796;3.860;2023-06-26T10:02:07;29.20;99.90
21271;DHT22;10795;50.796;3.860;2023-06-26T10:04:34;29.20;99.90
21271;DHT22;10795;50.796;3.860;2023-06-26T10:07:11;29.60;99.90
21271;DHT22;10795;50.796;3.860;2023-06-26T10:09:41;27.70;99.90
21271;DHT22;10795;50.796;3.860;2023-06-26T10:12:20;28.50;99.90
21271;DHT22;10795;50.796;3.860;2023-06-26T10:14:50;28.80;99.90
21271;DHT22;10795;50.796;3.860;2023-06-26T10:17:19;29.50;99.90
21271;DHT22;10795;50.796;3.860;2023-06-26T10:19:49;30.20;99.90
21271;DHT22;10795;50.796;3.860;2023-06-26T10:22:18;30.30;99.90
21271;DHT22;10795;50.796;3.860;2023-06-26T10:24:47;29.60;99.90
21271;DHT22;10795;50.796;3.860;2023-06-26T10:27:17;28.90;99.90
21271;DHT22;10795;50.796;3.860;2023-06-26T10:29:47;30.00;99.90
21271;DHT22;10795;50.796;3.860;2023-06-26T10:32:15;29.60;99.90
21271;DHT22;10795;50.796;3.860;2023-06-26T10:34:42;29.10;99.90
21271;DHT22;10795;50.796;3.860;2023-06-26T10:37:08;29.10;99.90
21271;DHT22;10795;50.796;3.860;2023-06-26T10:39:46;29.90;99.90
21271;DHT22;10795;50.796;3.860;2023-06-26T10:42:14;30.20;99.90
21271;DHT22;10795;50.796;3.860;2023-06-26T10:44:45;29.00;99.90
21271;DHT22;10795;50.796;3.860;2023-06-26T10:47:12;30.00;99.90
21271;DHT22;10795;50.796;3.860;2023-06-26T10:49:54;29.10;99.90
21271;DHT22;10795;50.796;3.860;2023-06-26T10:52:19;28.30;99.90
21271;DHT22;10795;50.796;3.860;2023-06-26T10:54:45;29.00;99.90
21271;DHT22;10795;50.796;3.860;2023-06-26T10:57:11;30.80;99.90
21271;DHT22;10795;50.796;3.860;2023-06-26T10:59:39;30.60;99.90
21271;DHT22;10795;50.796;3.860;2023-06-26T11:02:05;30.60;99.90
21271;DHT22;10795;50.796;3.860;2023-06-26T11:04:47;31.10;99.90
21271;DHT22;10795;50.796;3.860;2023-06-26T11:07:22;29.20;99.90
21271;DHT22;10795;50.796;3.860;2023-06-26T11:12:45;30.50;99.90
21271;DHT22;10795;50.796;3.860;2023-06-26T11:15:18;30.80;99.90
21271;DHT22;10795;50.796;3.860;2023-06-26T11:17:45;31.30;99.90
21271;DHT22;10795;50.796;3.860;2023-06-26T11:20:14;30.60;99.90
21271;DHT22;10795;50.796;3.860;2023-06-26T11:22:41;30.00;99.90
21271;DHT22;10795;50.796;3.860;2023-06-26T11:25:08;29.90;99.90
21271;DHT22;10795;50.796;3.860;2023-06-26T11:27:44;29.90;99.70
21271;DHT22;10795;50.796;3.860;2023-06-26T11:30:23;28.90;99.90
21271;DHT22;10795;50.796;3.860;2023-06-26T11:32:49;28.80;99.90
21271;DHT22;10795;50.796;3.860;2023-06-26T11:35:25;29.50;99.90
21271;DHT22;10795;50.796;3.860;2023-06-26T11:37:59;28.80;99.90
21271;DHT22;10795;50.796;3.860;2023-06-26T11:40:29;28.60;99.90
21271;DHT22;10795;50.796;3.860;2023-06-26T11:43:01;29.10;99.90
21271;DHT22;10795;50.796;3.860;2023-06-26T11:45:29;28.60;99.90
21271;DHT22;10795;50.796;3.860;2023-06-26T11:47:57;28.80;99.90
21271;DHT22;10795;50.796;3.860;2023-06-26T11:50:23;30.30;99.90
21271;DHT22;10795;50.796;3.860;2023-06-26T11:52:54;29.80;99.90
21271;DHT22;10795;50.796;3.860;2023-06-26T11:55:20;28.80;99.30
21271;DHT22;10795;50.796;3.860;2023-06-26T11:58:04;27.90;99.90
21271;DHT22;10795;50.796;3.860;2023-06-26T12:00:30;28.80;99.90
21271;DHT22;10795;50.796;3.860;2023-06-26T12:02:57;28.70;99.90
21271;DHT22;10795;50.796;3.860;2023-06-26T12:05:24;28.20;99.90
21271;DHT22;10795;50.796;3.860;2023-06-26T12:07:50;28.60;99.90
21271;DHT22;10795;50.796;3.860;2023-06-26T12:10:17;29.40;99.90
21271;DHT22;10795;50.796;3.860;2023-06-26T12:12:43;29.00;99.90
21271;DHT22;10795;50.796;3.860;2023-06-26T12:15:15;28.60;99.90
21271;DHT22;10795;50.796;3.860;2023-06-26T12:17:41;27.70;99.90
21271;DHT22;10795;50.796;3.860;2023-06-26T12:20:26;26.60;99.90
21271;DHT22;10795;50.796;3.860;2023-06-26T12:22:56;27.30;99.90
21271;DHT22;10795;50.796;3.860;2023-06-26T12:25:25;27.50;99.90
21271;DHT22;10795;50.796;3.860;2023-06-26T12:27:50;27.30;99.90
21271;DHT22;10795;50.796;3.860;2023-06-26T12:30:16;27.70;99.90
21271;DHT22;10795;50.796;3.860;2023-06-26T12:32:45;27.90;99.90
21271;DHT22;10795;50.796;3.860;2023-06-26T12:35:12;27.90;99.90
21271;DHT22;10795;50.796;3.860;2023-06-26T12:37:38;27.90;99.90
21271;DHT22;10795;50.796;3.860;2023-06-26T12:40:18;27.80;99.90
21271;DHT22;10795;50.796;3.860;2023-06-26T12:42:45;26.70;99.90
21271;DHT22;10795;50.796;3.860;2023-06-26T12:45:12;26.90;99.90
21271;DHT22;10795;50.796;3.860;2023-06-26T12:47:39;26.50;99.90
21271;DHT22;10795;50.796;3.860;2023-06-26T12:50:07;26.70;99.90
21271;DHT22;10795;50.796;3.860;2023-06-26T12:52:33;27.00;99.90
21271;DHT22;10795;50.796;3.860;2023-06-26T12:54:59;26.80;99.90
21271;DHT22;10795;50.796;3.860;2023-06-26T12:57:25;26.30;99.90
21271;DHT22;10795;50.796;3.860;2023-06-26T12:59:51;26.40;99.90
21271;DHT22;10795;50.796;3.860;2023-06-26T13:02:17;26.50;99.90
21271;DHT22;10795;50.796;3.860;2023-06-26T13:04:43;27.00;99.90
21271;DHT22;10795;50.796;3.860;2023-06-26T13:07:10;27.10;99.90
21271;DHT22;10795;50.796;3.860;2023-06-26T13:09:36;27.60;99.90
21271;DHT22;10795;50.796;3.860;2023-06-26T13:12:06;28.30;99.90
21271;DHT22;10795;50.796;3.860;2023-06-26T13:14:32;28.40;99.90
21271;DHT22;10795;50.796;3.860;2023-06-26T13:16:58;28.90;99.90
21271;DHT22;10795;50.796;3.860;2023-06-26T13:19:24;28.40;99.90
21271;DHT22;10795;50.796;3.860;2023-06-26T13:21:49;28.50;99.90
21271;DHT22;10795;50.796;3.860;2023-06-26T13:24:15;28.20;98.70
21271;DHT22;10795;50.796;3.860;2023-06-26T13:26:41;28.20;98.90
21271;DHT22;10795;50.796;3.860;2023-06-26T13:29:07;27.20;97.80
21271;DHT22;10795;50.796;3.860;2023-06-26T13:31:33;27.30;99.70
21271;DHT22;10795;50.796;3.860;2023-06-26T13:33:59;27.10;99.90
21271;DHT22;10795;50.796;3.860;2023-06-26T13:36:26;28.20;99.90
21271;DHT22;10795;50.796;3.860;2023-06-26T13:38:51;28.20;97.80
21271;DHT22;10795;50.796;3.860;2023-06-26T13:41:21;27.60;99.90
21271;DHT22;10795;50.796;3.860;2023-06-26T13:43:47;28.00;97.10
21271;DHT22;10795;50.796;3.860;2023-06-26T13:46:13;27.10;99.90
21271;DHT22;10795;50.796;3.860;2023-06-26T13:48:39;26.90;99.90
21271;DHT22;10795;50.796;3.860;2023-06-26T13:51:05;26.80;99.90
21271;DHT22;10795;50.796;3.860;2023-06-26T13:53:30;26.70;99.90
21271;DHT22;10795;50.796;3.860;2023-06-26T13:55:56;27.50;99.90
21271;DHT22;10795;50.796;3.860;2023-06-26T13:58:22;27.10;99.10
21271;DHT22;10795;50.796;3.860;2023-06-26T14:00:52;27.30;99.90
21271;DHT22;10795;50.796;3.860;2023-06-26T14:03:19;27.00;99.90
21271;DHT22;10795;50.796;3.860;2023-06-26T14:05:44;27.40;99.90
21271;DHT22;10795;50.796;3.860;2023-06-26T14:08:10;27.50;99.90
21271;DHT22;10795;50.796;3.860;2023-06-26T14:10:37;27.30;99.90
21271;DHT22;10795;50.796;3.860;2023-06-26T14:13:03;27.30;99.90
21271;DHT22;10795;50.796;3.860;2023-06-26T14:15:29;26.90;99.90
21271;DHT22;10795;50.796;3.860;2023-06-26T14:17:55;26.50;99.90
21271;DHT22;10795;50.796;3.860;2023-06-26T14:20:22;25.90;99.90
21271;DHT22;10795;50.796;3.860;2023-06-26T14:22:49;26.10;99.90
21271;DHT22;10795;50.796;3.860;2023-06-26T14:25:15;26.10;99.90
21271;DHT22;10795;50.796;3.860;2023-06-26T14:27:41;26.60;99.90
21271;DHT22;10795;50.796;3.860;2023-06-26T14:30:07;26.60;99.90
21271;DHT22;10795;50.796;3.860;2023-06-26T14:32:34;25.90;99.90
21271;DHT22;10795;50.796;3.860;2023-06-26T14:35:01;26.20;99.90
21271;DHT22;10795;50.796;3.860;2023-06-26T14:37:29;27.10;99.90
21271;DHT22;10795;50.796;3.860;2023-06-26T14:39:55;26.60;99.90
21271;DHT22;10795;50.796;3.860;2023-06-26T14:42:21;26.50;99.90
21271;DHT22;10795;50.796;3.860;2023-06-26T14:44:46;26.30;99.90
21271;DHT22;10795;50.796;3.860;2023-06-26T14:47:13;26.80;99.90
21271;DHT22;10795;50.796;3.860;2023-06-26T14:49:40;26.50;99.90
21271;DHT22;10795;50.796;3.860;2023-06-26T14:52:06;27.10;99.90
21271;DHT22;10795;50.796;3.860;2023-06-26T14:54:32;27.00;99.90
21271;DHT22;10795;50.796;3.860;2023-06-26T14:56:58;27.20;99.90
21271;DHT22;10795;50.796;3.860;2023-06-26T14:59:25;26.60;99.90
21271;DHT22;10795;50.796;3.860;2023-06-26T15:01:51;26.80;99.90
21271;DHT22;10795;50.796;3.860;2023-06-26T15:04:17;26.70;99.90
21271;DHT22;10795;50.796;3.860;2023-06-26T15:06:42;26.00;99.90
21271;DHT22;10795;50.796;3.860;2023-06-26T15:09:08;25.90;99.90
21271;DHT22;10795;50.796;3.860;2023-06-26T15:11:34;25.80;99.90
21271;DHT22;10795;50.796;3.860;2023-06-26T15:14:01;25.60;99.90
21271;DHT22;10795;50.796;3.860;2023-06-26T15:16:27;25.90;99.90
21271;DHT22;10795;50.796;3.860;2023-06-26T15:18:53;25.80;99.90
21271;DHT22;10795;50.796;3.860;2023-06-26T15:21:19;25.80;99.90
21271;DHT22;10795;50.796;3.860;2023-06-26T15:23:45;25.80;99.90
21271;DHT22;10795;50.796;3.860;2023-06-26T15:26:11;25.50;99.90
21271;DHT22;10795;50.796;3.860;2023-06-26T15:28:37;25.00;99.90
21271;DHT22;10795;50.796;3.860;2023-06-26T15:31:03;25.20;99.90
21271;DHT22;10795;50.796;3.860;2023-06-26T15:33:28;25.20;99.90
21271;DHT22;10795;50.796;3.860;2023-06-26T15:35:54;25.60;99.90
21271;DHT22;10795;50.796;3.860;2023-06-26T15:38:20;24.80;99.90
21271;DHT22;10795;50.796;3.860;2023-06-26T15:40:46;24.20;99.90